Time;durP1;ratioP1;P1;durP2;ratioP2;P2;SDS_P1;SDS_P2;PMS_P1;PMS_P2;Temp;Humidity;BMP_temperature;BMP_pressure;BME280_temperature;BME280_humidity;BME280_pressure;Samples;Min_cycle;Max_cycle;Signal;HPM_P1;HPM_P2
2022/03/03 00:01:19;;;;;;;119.80;56.05;;;3.20;1.00;;;;;;4808780;29;20165;-86
2022/03/03 00:03:45;;;;;;;111.22;55.33;;;4.20;99.90;;;;;;4824836;29;20050;-86
2022/03/03 00:06:10;;;;;;;127.82;57.90;;;3.00;1.00;;;;;;4824720;29;20054;-86
2022/03/03 00:08:36;;;;;;;129.35;58.70;;;1.80;1.00;;;;;;4825343;29;20054;-86
2022/03/03 00:11:02;;;;;;;115.40;56.78;;;2.00;1.00;;;;;;4824759;29;20118;-86
2022/03/03 00:13:28;;;;;;;125.93;58.67;;;3.00;1.00;;;;;;4824654;29;20071;-86
2022/03/03 00:15:54;;;;;;;114.00;56.70;;;4.30;99.90;;;;;;4824893;29;20105;-85
2022/03/03 00:18:19;;;;;;;119.55;57.28;;;4.20;1.00;;;;;;4824786;29;20050;-86
2022/03/03 00:20:45;;;;;;;111.70;58.00;;;1.70;1.00;;;;;;4824784;29;20054;-86
2022/03/03 00:23:11;;;;;;;117.75;57.28;;;2.50;1.00;;;;;;4808247;29;20641;-86
2022/03/03 00:25:37;;;;;;;124.68;59.08;;;3.70;99.90;;;;;;4808802;29;20507;-86
2022/03/03 00:28:04;;;;;;;106.90;55.30;;;3.50;1.00;;;;;;4823479;29;20095;-87
2022/03/03 00:30:29;;;;;;;115.53;57.00;;;1.90;1.00;;;;;;4824411;29;20042;-85
2022/03/03 00:32:55;;;;;;;111.47;55.80;;;3.60;1.00;;;;;;4823542;29;20403;-87
2022/03/03 00:35:21;;;;;;;111.28;54.58;;;1.50;1.00;;;;;;4824176;29;20504;-87
2022/03/03 00:37:47;;;;;;;109.18;54.60;;;3.60;1.00;;;;;;4808702;29;20129;-86
2022/03/03 00:40:12;;;;;;;114.38;55.22;;;3.10;1.00;;;;;;4823009;29;20508;-85
2022/03/03 00:42:39;;;;;;;116.90;55.38;;;1.80;1.00;;;;;;4808612;29;20066;-85
2022/03/03 00:45:05;;;;;;;109.13;56.17;;;3.60;1.00;;;;;;4824625;29;20159;-85
2022/03/03 00:47:32;;;;;;;115.15;55.63;;;;;;;;;;4808131;29;20145;-85
2022/03/03 00:49:58;;;;;;;116.72;56.75;;;1.30;1.00;;;;;;4808217;29;20050;-85
2022/03/03 00:52:24;;;;;;;119.82;55.95;;;;;;;;;;4824430;29;20111;-85
2022/03/03 00:54:49;;;;;;;119.30;56.58;;;1.20;1.00;;;;;;4808531;29;20476;-85
2022/03/03 00:57:15;;;;;;;124.40;55.63;;;1.50;1.00;;;;;;4824721;29;20111;-85
2022/03/03 00:59:41;;;;;;;122.22;56.97;;;3.30;1.00;;;;;;4808316;29;20050;-86
2022/03/03 01:02:07;;;;;;;128.73;57.45;;;0.90;1.00;;;;;;4807978;29;20054;-86
2022/03/03 01:04:33;;;;;;;119.40;57.45;;;1.20;1.00;;;;;;4808508;29;20050;-85
2022/03/03 01:06:58;;;;;;;118.63;58.95;;;0.90;1.00;;;;;;4808868;29;20501;-85
2022/03/03 01:09:30;;;;;;;124.78;56.40;;;1.10;1.00;;;;;;4825442;29;20082;-87
2022/03/03 01:11:56;;;;;;;126.07;56.55;;;1.30;1.00;;;;;;4824943;29;20133;-85
2022/03/03 01:14:23;;;;;;;122.45;56.13;;;1.30;1.00;;;;;;4824940;29;20058;-86
2022/03/03 01:16:52;;;;;;;121.50;57.20;;;1.00;1.00;;;;;;4824996;29;20113;-85
2022/03/03 01:19:19;;;;;;;129.17;58.20;;;2.40;1.00;;;;;;4824184;29;20310;-85
2022/03/03 01:21:45;;;;;;;123.30;57.05;;;-0.40;1.00;;;;;;4807997;29;20333;-85
2022/03/03 01:24:11;;;;;;;113.03;54.75;;;3.40;1.00;;;;;;4823678;29;20057;-84
2022/03/03 01:26:37;;;;;;;114.20;54.17;;;0.90;1.00;;;;;;4807616;29;20050;-85
2022/03/03 01:29:03;;;;;;;122.72;55.70;;;1.40;1.00;;;;;;4807793;29;20087;-84
2022/03/03 01:31:29;;;;;;;115.47;55.47;;;0.70;1.00;;;;;;4824248;29;20137;-84
2022/03/03 01:33:54;;;;;;;112.55;55.88;;;0.60;1.00;;;;;;4824354;29;20137;-85
2022/03/03 01:36:20;;;;;;;119.32;54.42;;;0.70;1.00;;;;;;4824117;29;20086;-86
2022/03/03 01:38:46;;;;;;;111.23;53.50;;;2.90;1.00;;;;;;4824489;29;20062;-86
2022/03/03 01:41:12;;;;;;;119.28;54.15;;;0.80;1.00;;;;;;4807917;29;20058;-85
2022/03/03 01:43:38;;;;;;;122.88;55.17;;;2.00;1.00;;;;;;4826806;29;20050;-86
2022/03/03 01:46:04;;;;;;;130.48;55.25;;;0.50;1.00;;;;;;4835027;29;20069;-84
2022/03/03 01:48:30;;;;;;;123.70;57.43;;;0.40;1.00;;;;;;4819403;29;20054;-83
2022/03/03 01:50:56;;;;;;;124.82;55.97;;;0.40;1.00;;;;;;4834414;29;20050;-83
2022/03/03 01:53:21;;;;;;;124.20;56.33;;;2.70;1.00;;;;;;4834121;29;20042;-83
2022/03/03 01:55:52;;;;;;;118.20;54.53;;;1.80;1.00;;;;;;4839482;29;20050;-84
2022/03/03 01:58:19;;;;;;;122.60;56.22;;;0.70;1.00;;;;;;4827706;29;20081;-84
2022/03/03 02:00:44;;;;;;;123.20;55.43;;;0.70;1.00;;;;;;4838326;29;20435;-84
2022/03/03 02:03:11;;;;;;;129.90;58.53;;;2.70;1.00;;;;;;4814491;29;20070;-88
2022/03/03 02:05:37;;;;;;;123.10;55.67;;;0.60;1.00;;;;;;4814609;29;20042;-85
2022/03/03 02:08:04;;;;;;;122.37;56.77;;;0.50;1.00;;;;;;4828572;29;20054;-84
2022/03/03 02:10:33;;;;;;;112.72;55.78;;;0.70;1.00;;;;;;4844520;29;20251;-85
2022/03/03 02:12:59;;;;;;;119.73;56.03;;;1.90;1.00;;;;;;4829158;29;20050;-87
2022/03/03 02:15:25;;;;;;;121.57;56.43;;;1.70;1.00;;;;;;4843976;29;20080;-86
2022/03/03 02:17:50;;;;;;;115.50;53.92;;;1.70;1.00;;;;;;4827034;29;20133;-86
2022/03/03 02:20:24;;;;;;;117.93;52.47;;;2.90;1.00;;;;;;4823815;29;20122;-86
2022/03/03 02:22:51;;;;;;;103.97;53.53;;;-0.50;1.00;;;;;;4792382;29;20129;-86
2022/03/03 02:25:24;;;;;;;119.67;52.07;;;0.30;1.00;;;;;;4824280;29;20114;-86
2022/03/03 02:27:50;;;;;;;153.10;52.60;;;0.20;1.00;;;;;;4824168;29;20128;-86
2022/03/03 02:30:18;;;;;;;114.32;56.08;;;0.30;1.00;;;;;;4806725;29;20046;-87
2022/03/03 02:32:45;;;;;;;127.93;55.67;;;1.30;1.00;;;;;;4807460;29;20054;-86
2022/03/03 02:35:11;;;;;;;116.20;52.53;;;0.30;1.00;;;;;;4806873;29;20046;-86
2022/03/03 02:37:39;;;;;;;120.00;50.97;;;0.10;1.00;;;;;;4822679;29;20096;-85
2022/03/03 02:40:09;;;;;;;128.23;55.67;;;1.60;1.00;;;;;;4806936;29;20137;-86
2022/03/03 02:42:35;;;;;;;126.67;56.43;;;0.20;1.00;;;;;;4822936;29;20038;-85
2022/03/03 02:45:04;;;;;;;120.77;53.40;;;;;;;;;;4823703;29;20057;-85
2022/03/03 02:47:30;;;;;;;126.60;55.77;;;0.20;18.80;;;;;;4806542;29;20058;-85
2022/03/03 02:49:57;;;;;;;121.03;53.50;;;2.30;8.80;;;;;;4806910;29;20047;-85
2022/03/03 02:52:23;;;;;;;144.53;55.13;;;0.80;1.00;;;;;;4822755;29;20147;-86
2022/03/03 02:54:49;;;;;;;200.57;59.67;;;;;;;;;;4806798;29;20058;-85
2022/03/03 03:00:00;;;;;;;119.03;54.17;;;1.90;1.00;;;;;;4822063;29;20054;-85
2022/03/03 03:02:25;;;;;;;115.13;52.87;;;1.80;1.00;;;;;;4822580;29;20061;-86
2022/03/03 03:04:51;;;;;;;165.83;58.37;;;0.10;1.00;;;;;;4810199;29;20453;-86
2022/03/03 03:07:17;;;;;;;122.23;54.00;;;1.70;1.00;;;;;;4809853;29;20085;-87
2022/03/03 03:09:43;;;;;;;111.80;53.53;;;0.80;1.00;;;;;;4825596;29;20165;-85
2022/03/03 03:12:09;;;;;;;138.47;56.37;;;2.40;1.00;;;;;;4810183;29;20530;-85
2022/03/03 03:14:34;;;;;;;120.77;55.00;;;0.10;1.00;;;;;;4809438;29;20058;-85
2022/03/03 03:17:00;;;;;;;120.53;52.77;;;-1.70;1.00;;;;;;4826116;29;20062;-85
2022/03/03 03:19:26;;;;;;;142.47;55.57;;;-0.80;1.00;;;;;;4825511;29;20055;-85
2022/03/03 03:21:52;;;;;;;116.53;53.37;;;-0.20;1.00;;;;;;4824888;29;20053;-85
2022/03/03 03:24:18;;;;;;;118.10;54.87;;;2.30;1.00;;;;;;4825603;29;20405;-87
2022/03/03 03:26:43;;;;;;;110.10;51.13;;;0.00;38.50;;;;;;4826190;29;20053;-85
2022/03/03 03:29:09;;;;;;;116.40;54.40;;;0.10;37.20;;;;;;4825799;29;20472;-85
2022/03/03 03:31:35;;;;;;;135.13;52.87;;;-0.20;28.30;;;;;;4809189;29;20403;-85
2022/03/03 03:34:00;;;;;;;111.60;53.50;;;-0.10;7.00;;;;;;4825662;29;20472;-85
2022/03/03 03:36:26;;;;;;;117.43;52.97;;;-0.50;1.00;;;;;;4823871;29;20508;-86
2022/03/03 03:38:52;;;;;;;120.60;54.30;;;1.10;1.20;;;;;;4809310;29;20138;-85
2022/03/03 03:41:17;;;;;;;133.30;55.20;;;2.40;1.00;;;;;;4825383;29;20057;-87
2022/03/03 03:43:43;;;;;;;141.53;56.17;;;-0.30;1.00;;;;;;4825530;29;20086;-86
2022/03/03 03:46:09;;;;;;;121.67;56.73;;;-0.20;1.00;;;;;;4824327;29;20051;-85
2022/03/03 03:48:34;;;;;;;118.30;54.53;;;1.60;9.50;;;;;;4825344;29;20066;-85
2022/03/03 03:51:00;;;;;;;146.03;59.67;;;0.10;3.50;;;;;;4825584;29;20132;-86
2022/03/03 03:53:26;;;;;;;130.87;59.20;;;0.10;3.30;;;;;;4823782;29;20088;-85
2022/03/03 03:55:52;;;;;;;154.33;61.50;;;2.10;1.00;;;;;;4809193;29;20129;-85
2022/03/03 03:58:17;;;;;;;147.67;61.93;;;2.70;1.00;;;;;;4825088;29;20046;-87
2022/03/03 04:00:43;;;;;;;130.90;57.83;;;2.40;1.00;;;;;;4824729;29;20377;-84
2022/03/03 04:03:09;;;;;;;121.63;60.40;;;2.60;1.00;;;;;;4825263;29;20102;-84
2022/03/03 04:05:35;;;;;;;147.07;58.17;;;2.20;1.00;;;;;;4824129;29;20054;-84
2022/03/03 04:08:01;;;;;;;146.00;59.80;;;2.00;1.00;;;;;;4823763;29;20533;-84
2022/03/03 04:10:28;;;;;;;130.80;58.13;;;3.10;1.00;;;;;;4807904;29;20154;-85
2022/03/03 04:12:54;;;;;;;120.78;58.85;;;0.40;1.00;;;;;;4824869;29;20046;-84
2022/03/03 04:15:20;;;;;;;122.00;56.40;;;2.70;1.00;;;;;;4823271;29;20058;-87
2022/03/03 04:17:46;;;;;;;125.57;56.87;;;0.30;1.00;;;;;;4823570;29;20504;-85
2022/03/03 04:20:12;;;;;;;128.07;58.93;;;2.60;1.00;;;;;;4808793;29;20046;-85
2022/03/03 04:22:41;;;;;;;124.80;55.27;;;0.20;1.00;;;;;;4807609;29;20055;-84
2022/03/03 04:25:10;;;;;;;122.00;58.33;;;-1.00;1.00;;;;;;4824974;29;20345;-85
2022/03/03 04:27:37;;;;;;;126.07;57.93;;;-0.40;1.00;;;;;;4824529;29;20069;-84
2022/03/03 04:30:05;;;;;;;131.60;60.25;;;0.50;1.00;;;;;;4808572;29;20055;-84
2022/03/03 04:32:30;;;;;;;;;;;0.60;1.00;;;;;;4808451;29;20412;-84
2022/03/03 04:34:56;;;;;;;128.93;56.77;;;2.70;1.00;;;;;;4808708;29;19924;-84
2022/03/03 04:37:22;;;;;;;113.77;55.83;;;;;;;;;;4807441;29;20073;-87
2022/03/03 04:39:48;;;;;;;109.93;54.37;;;;;;;;;;4825011;29;20058;-85
2022/03/03 04:42:14;;;;;;;114.77;56.00;;;0.50;1.00;;;;;;4808426;29;20061;-85
2022/03/03 04:44:40;;;;;;;113.57;55.73;;;0.20;1.00;;;;;;4824351;29;20055;-86
2022/03/03 04:47:06;;;;;;;114.37;52.40;;;;;;;;;;4823129;29;20069;-85
2022/03/03 04:49:37;;;;;;;103.80;53.33;;;;;;;;;;4824575;29;20053;-85
2022/03/03 04:52:03;;;;;;;102.40;52.63;;;0.40;1.00;;;;;;4824182;29;20192;-85
2022/03/03 04:54:29;;;;;;;107.13;55.33;;;-0.80;1.00;;;;;;4807659;29;20136;-86
2022/03/03 04:56:55;;;;;;;101.37;54.43;;;0.00;1.00;;;;;;4807789;29;20069;-86
2022/03/03 04:59:25;;;;;;;111.30;52.83;;;2.30;1.00;;;;;;4822676;29;20137;-85
2022/03/03 05:01:51;;;;;;;106.07;50.83;;;0.30;1.00;;;;;;4807435;29;20497;-85
2022/03/03 05:04:18;;;;;;;98.20;49.90;;;-0.20;1.00;;;;;;4823717;29;20051;-85
2022/03/03 05:06:45;;;;;;;100.97;51.63;;;-0.10;1.00;;;;;;4823485;29;20503;-85
2022/03/03 05:09:11;;;;;;;99.97;51.60;;;0.10;1.00;;;;;;4807226;29;20117;-85
2022/03/03 05:11:37;;;;;;;96.80;51.00;;;-1.10;1.00;;;;;;4807134;29;20122;-85
2022/03/03 05:14:06;;;;;;;88.43;47.43;;;0.00;1.00;;;;;;4822342;29;20563;-84
2022/03/03 05:16:33;;;;;;;100.30;50.87;;;-1.30;1.00;;;;;;4822551;29;20661;-86
2022/03/03 05:18:59;;;;;;;100.27;52.20;;;2.40;1.00;;;;;;4807426;29;20058;-85
2022/03/03 05:21:25;;;;;;;94.20;49.33;;;0.80;1.00;;;;;;4823579;29;20367;-85
2022/03/03 05:23:52;;;;;;;100.00;50.43;;;1.70;1.00;;;;;;4824104;29;20058;-85
2022/03/03 05:26:18;;;;;;;92.00;49.20;;;1.50;1.00;;;;;;4792260;29;20130;-85
2022/03/03 05:28:44;;;;;;;93.87;49.33;;;-0.30;1.00;;;;;;4823602;29;20496;-85
2022/03/03 05:31:10;;;;;;;92.03;47.63;;;0.30;1.00;;;;;;4806880;29;20093;-85
2022/03/03 05:33:36;;;;;;;91.80;48.23;;;1.60;1.00;;;;;;4822108;29;20046;-85
2022/03/03 05:36:07;;;;;;;101.57;49.00;;;2.50;1.00;;;;;;4792299;29;20126;-85
2022/03/03 05:38:34;;;;;;;90.23;49.93;;;0.10;1.00;;;;;;4807682;29;20391;-86
2022/03/03 05:41:01;;;;;;;94.15;49.00;;;1.80;1.00;;;;;;4807747;29;20042;-85
2022/03/03 05:43:28;;;;;;;79.45;46.22;;;2.80;1.00;;;;;;4823618;29;20042;-86
2022/03/03 05:45:55;;;;;;;93.70;48.57;;;-0.40;1.00;;;;;;4823655;29;20050;-85
2022/03/03 05:48:22;;;;;;;93.37;51.53;;;2.20;1.00;;;;;;4823998;29;20092;-85
2022/03/03 05:50:49;;;;;;;91.35;47.40;;;1.00;13.20;;;;;;4807149;29;20066;-85
2022/03/03 05:53:16;;;;;;;95.40;49.73;;;0.00;18.10;;;;;;4807696;29;20050;-85
2022/03/03 05:55:44;;;;;;;95.37;49.53;;;0.80;99.80;;;;;;4822128;29;20050;-85
2022/03/03 05:58:19;;;;;;;87.90;48.57;;;-0.10;62.90;;;;;;4823956;29;20077;-85
2022/03/03 06:00:46;;;;;;;91.83;46.60;;;-0.50;45.30;;;;;;4806880;29;20173;-85
2022/03/03 06:03:19;;;;;;;106.97;51.55;;;-0.40;16.60;;;;;;4823768;29;20057;-85
2022/03/03 06:05:53;;;;;;;83.37;48.73;;;-0.60;1.00;;;;;;4823131;29;20054;-85
2022/03/03 06:08:34;;;;;;;94.67;48.63;;;-0.70;1.00;;;;;;4822942;29;20054;-85
2022/03/03 06:11:02;;;;;;;90.77;47.73;;;-0.30;1.00;;;;;;4823251;29;20058;-85
2022/03/03 06:13:36;;;;;;;92.47;50.40;;;0.00;1.00;;;;;;4806402;29;20119;-87
2022/03/03 06:16:03;;;;;;;93.20;48.93;;;-0.30;1.00;;;;;;4821064;29;20173;-84
2022/03/03 06:18:32;;;;;;;96.75;48.35;;;0.00;1.00;;;;;;4806112;29;20090;-85
2022/03/03 06:20:58;;;;;;;94.90;49.00;;;;;;;;;;4823033;29;20051;-85
2022/03/03 06:23:24;;;;;;;98.77;50.50;;;;;;;;;;4823000;29;20050;-84
2022/03/03 06:26:06;;;;;;;91.40;46.57;;;0.80;1.00;;;;;;4822233;29;20062;-85
2022/03/03 06:28:32;;;;;;;86.90;48.70;;;0.80;1.00;;;;;;4806098;29;20111;-85
2022/03/03 06:30:58;;;;;;;99.77;50.50;;;1.80;1.00;;;;;;4822029;29;20129;-85
2022/03/03 06:33:25;;;;;;;90.53;48.63;;;-0.20;1.00;;;;;;4806213;29;20190;-85
2022/03/03 06:35:51;;;;;;;97.93;49.33;;;-0.40;1.00;;;;;;4822244;29;20054;-85
2022/03/03 06:38:17;;;;;;;87.57;47.50;;;-0.40;1.00;;;;;;4806001;29;20064;-85
2022/03/03 06:40:43;;;;;;;87.87;48.43;;;0.00;1.00;;;;;;4822163;29;20576;-84
2022/03/03 06:43:09;;;;;;;97.73;50.63;;;-0.20;1.00;;;;;;4823002;29;20050;-85
2022/03/03 06:45:35;;;;;;;122.27;52.63;;;2.10;1.00;;;;;;4806221;29;20058;-85
2022/03/03 06:48:04;;;;;;;90.57;49.40;;;0.20;1.00;;;;;;4823160;29;20532;-85
2022/03/03 06:50:30;;;;;;;86.90;48.17;;;;;;;;;;4822896;29;20089;-84
2022/03/03 06:52:56;;;;;;;99.10;49.47;;;2.00;1.00;;;;;;4806479;29;20239;-85
2022/03/03 06:55:24;;;;;;;89.27;50.70;;;2.70;1.00;;;;;;4822957;29;20107;-85
2022/03/03 06:57:54;;;;;;;96.47;52.63;;;-0.50;1.00;;;;;;4823208;29;20046;-85
2022/03/03 07:00:23;;;;;;;84.67;49.03;;;2.70;1.00;;;;;;4822537;29;20086;-85
2022/03/03 07:02:49;;;;;;;85.87;48.90;;;-0.80;1.00;;;;;;4822665;29;20086;-85
2022/03/03 07:05:15;;;;;;;87.87;47.77;;;0.90;1.00;;;;;;4806363;29;20147;-85
2022/03/03 07:07:43;;;;;;;88.47;49.53;;;0.20;1.00;;;;;;4822670;29;20179;-86
2022/03/03 07:10:11;;;;;;;91.77;49.37;;;0.20;1.00;;;;;;4822672;29;20161;-85
2022/03/03 07:12:37;;;;;;;94.32;53.10;;;0.20;1.00;;;;;;4805777;29;20133;-86
2022/03/03 07:15:04;;;;;;;97.43;51.70;;;-0.10;1.00;;;;;;4822246;29;20145;-86
2022/03/03 07:17:47;;;;;;;84.70;48.20;;;0.40;99.90;;;;;;4822556;29;20058;-87
2022/03/03 07:20:39;;;;;;;93.70;50.93;;;0.40;99.90;;;;;;4806534;29;20057;-86
2022/03/03 07:23:25;;;;;;;88.43;50.70;;;2.60;99.90;;;;;;4822758;29;20110;-87
2022/03/03 07:25:54;;;;;;;89.90;49.60;;;0.50;99.90;;;;;;4821540;29;20204;-86
2022/03/03 07:28:21;;;;;;;91.87;49.33;;;0.60;99.90;;;;;;4822179;29;20508;-86
2022/03/03 07:30:50;;;;;;;84.72;49.20;;;1.20;99.90;;;;;;4805588;29;20441;-86
2022/03/03 07:33:27;;;;;;;80.63;48.53;;;0.50;99.90;;;;;;4822272;29;20493;-86
2022/03/03 07:35:57;;;;;;;89.83;49.73;;;0.40;99.90;;;;;;4805624;29;20221;-85
2022/03/03 07:38:32;;;;;;;84.27;49.63;;;0.60;99.90;;;;;;4806061;29;20061;-86
2022/03/03 07:40:59;;;;;;;88.90;48.43;;;0.60;99.90;;;;;;4805458;29;20068;-87
2022/03/03 07:43:25;;;;;;;78.97;45.08;;;;;;;;;;4822229;29;20046;-85
2022/03/03 07:45:51;;;;;;;85.73;47.57;;;0.90;99.90;;;;;;4804988;29;20051;-87
2022/03/03 07:48:20;;;;;;;82.50;47.70;;;0.80;99.90;;;;;;4818521;29;20540;-85
2022/03/03 07:50:45;;;;;;;88.27;47.07;;;3.70;99.90;;;;;;4823895;29;20564;-86
2022/03/03 07:53:13;;;;;;;82.90;47.57;;;0.60;99.90;;;;;;4808531;29;20043;-86
2022/03/03 07:55:44;;;;;;;81.40;46.25;;;1.80;99.90;;;;;;4824660;29;20093;-86
2022/03/03 07:58:16;;;;;;;89.60;47.93;;;3.50;99.90;;;;;;4824886;29;20531;-86
2022/03/03 08:00:47;;;;;;;80.33;46.70;;;1.70;99.90;;;;;;4824116;29;20062;-86
2022/03/03 08:03:17;;;;;;;80.40;46.87;;;3.40;99.90;;;;;;4825284;29;20082;-86
2022/03/03 08:05:45;;;;;;;78.63;45.13;;;2.80;99.90;;;;;;4808688;29;20459;-86
2022/03/03 08:08:16;;;;;;;76.50;45.87;;;1.80;99.90;;;;;;4825195;29;20061;-86
2022/03/03 08:10:44;;;;;;;77.83;44.47;;;3.40;99.90;;;;;;4823770;29;20146;-85
2022/03/03 08:13:15;;;;;;;78.97;47.45;;;2.50;99.90;;;;;;4823810;29;20068;-86
2022/03/03 08:15:43;;;;;;;81.23;47.13;;;2.90;99.90;;;;;;4822995;29;20133;-85
2022/03/03 08:18:10;;;;;;;71.45;43.95;;;4.10;99.90;;;;;;4823384;29;20046;-86
2022/03/03 08:20:38;;;;;;;75.20;45.60;;;2.70;99.90;;;;;;4808496;29;20050;-86
2022/03/03 08:23:04;;;;;;;;;;;1.60;99.90;;;;;;4808558;29;20133;-86
2022/03/03 08:25:30;;;;;;;74.33;41.93;;;1.40;99.90;;;;;;4824614;29;19928;-86
2022/03/03 08:27:56;;;;;;;76.87;42.70;;;3.00;99.90;;;;;;4808054;29;20141;-86
2022/03/03 08:30:22;;;;;;;70.77;42.90;;;2.70;99.90;;;;;;4808000;29;20396;-86
2022/03/03 08:32:57;;;;;;;70.60;42.10;;;1.70;99.90;;;;;;4822936;29;20055;-85
2022/03/03 08:35:26;;;;;;;72.90;41.50;;;2.20;99.90;;;;;;4824596;29;20270;-86
2022/03/03 08:38:02;;;;;;;71.13;42.30;;;2.40;99.90;;;;;;4807958;29;20046;-86
2022/03/03 08:40:30;;;;;;;72.37;41.07;;;2.30;99.90;;;;;;4808070;29;20500;-86
2022/03/03 08:43:00;;;;;;;74.00;42.20;;;4.00;99.90;;;;;;4824586;29;20420;-86
2022/03/03 08:45:29;;;;;;;69.38;40.17;;;1.90;99.90;;;;;;4823837;29;20424;-87
2022/03/03 08:47:58;;;;;;;61.87;35.80;;;2.60;99.90;;;;;;4807827;29;20050;-87
2022/03/03 08:50:27;;;;;;;63.83;39.27;;;2.80;99.90;;;;;;4807957;29;20050;-86
2022/03/03 08:52:55;;;;;;;62.22;36.75;;;5.90;99.90;;;;;;4823890;29;20050;-87
2022/03/03 08:55:22;;;;;;;57.35;36.03;;;8.30;74.90;;;;;;4824153;29;20050;-87
2022/03/03 08:57:47;;;;;;;51.53;30.75;;;7.90;70.60;;;;;;4823986;29;20099;-88
2022/03/03 09:00:14;;;;;;;56.22;29.05;;;9.20;27.00;;;;;;4793060;29;20050;-87
2022/03/03 09:02:40;;;;;;;48.67;27.88;;;10.10;1.00;;;;;;4808050;29;20082;-86
2022/03/03 09:05:07;;;;;;;44.85;27.98;;;11.50;1.00;;;;;;4808178;29;20060;-87
2022/03/03 09:07:33;;;;;;;43.07;25.37;;;11.80;1.00;;;;;;4807957;29;20058;-86
2022/03/03 09:10:03;;;;;;;38.10;24.20;;;12.80;1.00;;;;;;4823455;29;20058;-86
2022/03/03 09:12:29;;;;;;;43.97;24.70;;;12.80;1.00;;;;;;4807980;29;20046;-86
2022/03/03 09:14:54;;;;;;;36.17;22.38;;;12.90;1.00;;;;;;4806992;29;20062;-87
2022/03/03 09:17:20;;;;;;;40.40;23.67;;;13.30;1.00;;;;;;4822627;29;20066;-87
2022/03/03 09:19:47;;;;;;;39.42;22.02;;;;;;;;;;4823427;29;20054;-88
2022/03/03 09:22:14;;;;;;;39.78;22.60;;;15.00;1.00;;;;;;4822747;29;20104;-86
2022/03/03 09:24:40;;;;;;;36.38;21.73;;;14.70;1.00;;;;;;4823697;29;20233;-88
2022/03/03 09:27:06;;;;;;;32.85;20.65;;;15.10;1.00;;;;;;4821599;29;20240;-87
2022/03/03 09:29:35;;;;;;;33.72;20.77;;;15.50;1.00;;;;;;4822018;29;20046;-87
2022/03/03 09:32:03;;;;;;;37.03;20.42;;;15.60;1.00;;;;;;4822714;29;20208;-88
2022/03/03 09:34:29;;;;;;;30.77;19.60;;;16.10;1.00;;;;;;4823041;29;20050;-87
2022/03/03 09:36:56;;;;;;;28.73;19.00;;;15.60;1.00;;;;;;4820063;29;20137;-88
2022/03/03 09:39:22;;;;;;;34.92;20.08;;;15.70;1.00;;;;;;4822966;29;20066;-88
2022/03/03 09:41:50;;;;;;;31.52;19.33;;;14.70;1.00;;;;;;4806766;29;20101;-88
2022/03/03 09:44:21;;;;;;;32.05;18.50;;;14.90;1.00;;;;;;4807130;29;20083;-88
2022/03/03 09:46:47;;;;;;;29.60;17.95;;;15.70;1.00;;;;;;4821765;29;20291;-88
2022/03/03 09:49:12;;;;;;;34.03;18.55;;;16.70;1.00;;;;;;4804773;29;20081;-88
2022/03/03 09:51:38;;;;;;;35.60;18.98;;;15.80;1.00;;;;;;4806846;29;20485;-87
2022/03/03 09:54:07;;;;;;;30.90;19.40;;;16.10;1.00;;;;;;4822380;29;20064;-88
2022/03/03 09:56:33;;;;;;;32.55;18.48;;;16.60;1.00;;;;;;4823154;29;20056;-88
2022/03/03 09:58:59;;;;;;;36.15;19.20;;;16.10;1.00;;;;;;4820260;29;20054;-87
2022/03/03 10:01:31;;;;;;;30.27;18.67;;;16.10;1.00;;;;;;4822144;29;20117;-88
2022/03/03 10:04:23;;;;;;;30.52;18.15;;;15.90;1.00;;;;;;4822456;29;20046;-89
2022/03/03 10:06:50;;;;;;;27.88;17.77;;;15.00;1.00;;;;;;4822215;29;20054;-88
2022/03/03 10:09:18;;;;;;;26.05;16.52;;;14.20;1.00;;;;;;4806877;29;20051;-88
2022/03/03 10:12:01;;;;;;;26.38;17.25;;;14.20;1.00;;;;;;4823155;29;20130;-88
2022/03/03 10:14:28;;;;;;;28.10;17.00;;;13.30;1.00;;;;;;4805849;29;20069;-88
2022/03/03 10:16:54;;;;;;;28.92;17.83;;;12.80;1.00;;;;;;4791639;29;20387;-89
2022/03/03 10:19:20;;;;;;;29.60;18.30;;;;;;;;;;4806808;29;20114;-87
2022/03/03 10:21:46;;;;;;;30.13;18.25;;;;;;;;;;4823286;29;20121;-88
2022/03/03 10:24:21;;;;;;;27.85;17.25;;;11.40;1.00;;;;;;4823048;29;20056;-86
2022/03/03 10:26:59;;;;;;;30.30;18.38;;;10.90;1.00;;;;;;4823290;29;20047;-88
2022/03/03 10:29:25;;;;;;;31.55;18.05;;;10.60;1.00;;;;;;4823150;29;20145;-88
2022/03/03 10:31:52;;;;;;;26.73;16.10;;;11.60;1.00;;;;;;4822492;29;20058;-88
2022/03/03 10:34:21;;;;;;;27.37;16.50;;;10.70;1.00;;;;;;4806348;29;20053;-88
2022/03/03 10:37:08;;;;;;;27.13;16.33;;;9.50;1.00;;;;;;4806261;29;20050;-87
2022/03/03 10:39:48;;;;;;;22.30;14.80;;;9.30;1.00;;;;;;4822570;29;20050;-87
2022/03/03 10:42:16;;;;;;;27.17;14.20;;;9.10;1.00;;;;;;4820301;29;20039;-87
2022/03/03 10:44:42;;;;;;;26.25;15.95;;;9.20;1.00;;;;;;4845539;29;20050;-86
2022/03/03 10:47:11;;;;;;;24.85;16.20;;;9.50;1.00;;;;;;4829208;29;20067;-87
2022/03/03 10:49:46;;;;;;;26.80;15.52;;;11.80;1.00;;;;;;4845398;29;20042;-87
2022/03/03 10:52:14;;;;;;;28.00;15.30;;;10.50;1.00;;;;;;4820938;29;20088;-88
2022/03/03 10:54:52;;;;;;;25.58;14.80;;;10.70;1.00;;;;;;4845458;29;20057;-88
2022/03/03 10:57:38;;;;;;;24.98;14.63;;;11.80;1.00;;;;;;4809687;29;20046;-86
2022/03/03 11:00:09;;;;;;;24.33;15.75;;;11.10;1.00;;;;;;4805881;29;20416;-87
2022/03/03 11:02:37;;;;;;;23.52;14.57;;;11.10;1.00;;;;;;4806129;29;20134;-87
2022/03/03 11:05:03;;;;;;;;;;;11.90;1.00;;;;;;4806337;29;20074;-86
2022/03/03 11:07:29;;;;;;;24.15;14.93;;;12.30;1.00;;;;;;4806085;29;20025;-87
2022/03/03 11:09:56;;;;;;;22.25;13.20;;;13.40;1.00;;;;;;4822330;29;20054;-88
2022/03/03 11:12:22;;;;;;;22.67;13.97;;;14.50;1.00;;;;;;4807648;29;20059;-88
2022/03/03 11:14:48;;;;;;;22.15;13.63;;;17.90;1.00;;;;;;4805913;29;20142;-88
2022/03/03 11:17:14;;;;;;;20.55;12.88;;;17.20;1.00;;;;;;4820865;29;20066;-87
2022/03/03 11:19:41;;;;;;;23.00;12.30;;;17.90;1.00;;;;;;4822267;29;20110;-88
2022/03/03 11:22:07;;;;;;;21.88;11.85;;;18.00;1.00;;;;;;4805629;29;20058;-88
2022/03/03 11:24:37;;;;;;;19.65;12.63;;;18.20;1.00;;;;;;4823643;29;20102;-88
2022/03/03 11:27:04;;;;;;;20.67;13.02;;;18.70;1.00;;;;;;4824602;29;20062;-88
2022/03/03 11:29:32;;;;;;;23.45;14.35;;;19.40;1.00;;;;;;4824860;29;20133;-88
2022/03/03 11:32:06;;;;;;;20.42;13.45;;;20.60;1.00;;;;;;4823597;29;20500;-88
2022/03/03 11:34:32;;;;;;;22.23;13.82;;;19.90;1.00;;;;;;4824997;29;20050;-88
2022/03/03 11:37:09;;;;;;;21.63;13.98;;;19.90;1.00;;;;;;4808493;29;20345;-88
2022/03/03 11:39:48;;;;;;;24.77;13.90;;;19.60;1.00;;;;;;4824899;29;20058;-86
2022/03/03 11:42:24;;;;;;;20.73;13.73;;;18.80;1.00;;;;;;4807915;29;20492;-88
2022/03/03 11:44:53;;;;;;;22.95;13.63;;;17.50;1.00;;;;;;4823375;29;20077;-88
2022/03/03 11:47:28;;;;;;;23.98;14.18;;;15.90;1.00;;;;;;4824350;29;20185;-88
2022/03/03 11:50:19;;;;;;;27.50;17.33;;;15.40;1.00;;;;;;4808605;29;20061;-86
2022/03/03 11:52:53;;;;;;;29.35;17.38;;;14.10;1.00;;;;;;4823370;29;20056;-87
2022/03/03 11:55:34;;;;;;;27.48;17.38;;;13.40;1.00;;;;;;4824396;29;20550;-87
2022/03/03 11:58:06;;;;;;;27.67;18.00;;;12.90;1.00;;;;;;4807442;29;20054;-87
2022/03/03 12:00:43;;;;;;;27.90;18.17;;;12.40;1.00;;;;;;4822321;29;20553;-86
2022/03/03 12:03:14;;;;;;;24.70;16.05;;;12.40;1.00;;;;;;4823747;29;20050;-87
2022/03/03 12:06:02;;;;;;;27.23;17.60;;;11.50;1.00;;;;;;4808348;29;20062;-85
2022/03/03 12:08:32;;;;;;;26.48;17.75;;;11.30;1.00;;;;;;4823605;29;20141;-87
2022/03/03 12:11:01;;;;;;;29.77;18.77;;;11.10;1.00;;;;;;4824188;29;20153;-88
2022/03/03 12:13:28;;;;;;;26.52;16.95;;;11.10;1.00;;;;;;4808716;29;20080;-87
2022/03/03 12:16:33;;;;;;;31.60;19.42;;;11.10;1.00;;;;;;4784395;29;1187079;-88
2022/03/03 12:19:08;;;;;;;31.13;19.30;;;11.00;1.00;;;;;;4808778;29;20103;-88
2022/03/03 12:21:48;;;;;;;27.52;17.00;;;11.30;1.00;;;;;;4825127;29;20061;-87
2022/03/03 12:24:27;;;;;;;30.23;18.40;;;12.40;1.00;;;;;;4808266;29;20050;-87
2022/03/03 12:26:56;;;;;;;27.80;17.77;;;13.80;1.00;;;;;;4825165;29;20062;-88
2022/03/03 12:29:41;;;;;;;30.85;18.20;;;12.40;1.00;;;;;;4825064;29;20054;-88
2022/03/03 12:32:26;;;;;;;29.83;18.83;;;12.00;1.00;;;;;;4808211;29;20198;-87
2022/03/03 12:34:53;;;;;;;31.33;18.02;;;11.50;1.00;;;;;;4824781;29;20050;-88
2022/03/03 12:37:19;;;;;;;30.83;18.35;;;11.10;1.00;;;;;;4823744;29;20122;-88
2022/03/03 12:39:53;;;;;;;30.60;18.58;;;10.90;1.00;;;;;;4824034;29;20199;-87
2022/03/03 12:42:25;;;;;;;32.38;17.85;;;11.50;1.00;;;;;;4824503;29;20274;-88
2022/03/03 12:44:56;;;;;;;27.58;17.10;;;10.80;1.00;;;;;;4824791;29;20137;-88
2022/03/03 12:47:37;;;;;;;33.08;17.85;;;10.50;1.00;;;;;;4824468;29;20050;-88
2022/03/03 12:50:11;;;;;;;29.13;18.35;;;12.20;1.00;;;;;;4824225;29;20058;-88
2022/03/03 12:52:40;;;;;;;28.73;17.00;;;10.30;1.00;;;;;;4824599;29;20090;-87